sensor_id;sensor_type;location;lat;lon;timestamp;temperature;humidity
11454;DHT22;5783;55.174;61.310;2023-05-09T00:00:48;20.90;29.90
11454;DHT22;5783;55.174;61.310;2023-05-09T00:03:17;20.90;30.00
11454;DHT22;5783;55.174;61.310;2023-05-09T00:05:46;20.90;29.90
11454;DHT22;5783;55.174;61.310;2023-05-09T00:08:15;20.90;30.00
11454;DHT22;5783;55.174;61.310;2023-05-09T00:10:44;20.90;30.20
11454;DHT22;5783;55.174;61.310;2023-05-09T00:13:14;20.90;29.90
11454;DHT22;5783;55.174;61.310;2023-05-09T00:15:43;20.90;29.90
11454;DHT22;5783;55.174;61.310;2023-05-09T00:18:15;20.90;30.00
11454;DHT22;5783;55.174;61.310;2023-05-09T00:20:43;20.90;29.90
11454;DHT22;5783;55.174;61.310;2023-05-09T00:23:12;20.90;29.90
11454;DHT22;5783;55.174;61.310;2023-05-09T00:25:42;20.90;29.90
11454;DHT22;5783;55.174;61.310;2023-05-09T00:28:11;20.90;29.90
11454;DHT22;5783;55.174;61.310;2023-05-09T00:30:41;20.90;29.90
11454;DHT22;5783;55.174;61.310;2023-05-09T00:33:10;20.80;29.90
11454;DHT22;5783;55.174;61.310;2023-05-09T00:35:39;20.80;29.40
11454;DHT22;5783;55.174;61.310;2023-05-09T00:38:08;20.80;30.00
11454;DHT22;5783;55.174;61.310;2023-05-09T00:40:38;20.80;30.00
11454;DHT22;5783;55.174;61.310;2023-05-09T00:43:07;20.80;29.90
11454;DHT22;5783;55.174;61.310;2023-05-09T00:45:36;20.80;29.90
11454;DHT22;5783;55.174;61.310;2023-05-09T00:48:06;20.80;30.00
11454;DHT22;5783;55.174;61.310;2023-05-09T00:50:35;20.80;30.00
11454;DHT22;5783;55.174;61.310;2023-05-09T00:53:05;20.80;30.00
11454;DHT22;5783;55.174;61.310;2023-05-09T00:55:34;20.80;30.00
11454;DHT22;5783;55.174;61.310;2023-05-09T00:58:03;20.80;30.10
11454;DHT22;5783;55.174;61.310;2023-05-09T01:00:32;20.80;30.30
11454;DHT22;5783;55.174;61.310;2023-05-09T01:03:02;20.80;30.10
11454;DHT22;5783;55.174;61.310;2023-05-09T01:21:18;20.70;30.50
11454;DHT22;5783;55.174;61.310;2023-05-09T01:29:47;20.60;30.60
11454;DHT22;5783;55.174;61.310;2023-05-09T01:32:36;20.60;30.60
11454;DHT22;5783;55.174;61.310;2023-05-09T01:35:06;20.60;30.30
11454;DHT22;5783;55.174;61.310;2023-05-09T01:37:38;20.60;30.40
11454;DHT22;5783;55.174;61.310;2023-05-09T01:40:29;20.60;30.50
11454;DHT22;5783;55.174;61.310;2023-05-09T01:43:19;20.60;30.60
11454;DHT22;5783;55.174;61.310;2023-05-09T01:45:50;20.60;30.50
11454;DHT22;5783;55.174;61.310;2023-05-09T01:48:22;20.60;30.40
11454;DHT22;5783;55.174;61.310;2023-05-09T01:50:54;20.60;30.30
11454;DHT22;5783;55.174;61.310;2023-05-09T01:53:25;20.60;30.30
11454;DHT22;5783;55.174;61.310;2023-05-09T01:55:56;20.60;30.40
11454;DHT22;5783;55.174;61.310;2023-05-09T01:58:27;20.70;30.50
11454;DHT22;5783;55.174;61.310;2023-05-09T02:00:57;20.60;30.60
11454;DHT22;5783;55.174;61.310;2023-05-09T02:03:27;20.70;30.70
11454;DHT22;5783;55.174;61.310;2023-05-09T02:05:56;20.70;30.70
11454;DHT22;5783;55.174;61.310;2023-05-09T02:08:25;20.70;30.70
11454;DHT22;5783;55.174;61.310;2023-05-09T02:10:55;20.70;30.90
11454;DHT22;5783;55.174;61.310;2023-05-09T02:13:24;20.70;30.90
11454;DHT22;5783;55.174;61.310;2023-05-09T02:15:54;20.70;30.90
11454;DHT22;5783;55.174;61.310;2023-05-09T02:18:24;20.70;31.00
11454;DHT22;5783;55.174;61.310;2023-05-09T02:20:57;20.70;30.80
11454;DHT22;5783;55.174;61.310;2023-05-09T02:23:26;20.70;31.00
11454;DHT22;5783;55.174;61.310;2023-05-09T02:25:56;20.70;30.90
11454;DHT22;5783;55.174;61.310;2023-05-09T02:28:25;20.70;30.80
11454;DHT22;5783;55.174;61.310;2023-05-09T02:30:57;20.70;30.80
11454;DHT22;5783;55.174;61.310;2023-05-09T02:33:26;20.70;30.90
11454;DHT22;5783;55.174;61.310;2023-05-09T02:35:56;20.70;30.90
11454;DHT22;5783;55.174;61.310;2023-05-09T02:38:26;20.70;30.90
11454;DHT22;5783;55.174;61.310;2023-05-09T02:40:55;20.70;30.90
11454;DHT22;5783;55.174;61.310;2023-05-09T02:43:25;20.70;31.00
11454;DHT22;5783;55.174;61.310;2023-05-09T02:45:54;20.70;31.00
11454;DHT22;5783;55.174;61.310;2023-05-09T02:48:23;20.70;31.10
11454;DHT22;5783;55.174;61.310;2023-05-09T02:50:52;20.70;31.20
11454;DHT22;5783;55.174;61.310;2023-05-09T02:53:23;20.70;31.00
11454;DHT22;5783;55.174;61.310;2023-05-09T02:55:52;20.70;30.90
11454;DHT22;5783;55.174;61.310;2023-05-09T02:58:21;20.70;30.80
11454;DHT22;5783;55.174;61.310;2023-05-09T03:00:50;20.70;30.90
11454;DHT22;5783;55.174;61.310;2023-05-09T03:03:19;20.70;30.70
11454;DHT22;5783;55.174;61.310;2023-05-09T03:05:48;20.70;30.90
11454;DHT22;5783;55.174;61.310;2023-05-09T03:08:18;20.70;31.00
11454;DHT22;5783;55.174;61.310;2023-05-09T03:10:47;20.70;31.10
11454;DHT22;5783;55.174;61.310;2023-05-09T03:13:17;20.70;30.80
11454;DHT22;5783;55.174;61.310;2023-05-09T03:15:46;20.70;30.70
11454;DHT22;5783;55.174;61.310;2023-05-09T03:18:15;20.70;30.80
11454;DHT22;5783;55.174;61.310;2023-05-09T03:20:44;20.80;31.00
11454;DHT22;5783;55.174;61.310;2023-05-09T03:23:13;20.80;31.00
11454;DHT22;5783;55.174;61.310;2023-05-09T03:25:42;20.80;31.30
11454;DHT22;5783;55.174;61.310;2023-05-09T03:28:12;20.80;31.00
11454;DHT22;5783;55.174;61.310;2023-05-09T03:30:41;20.80;31.20
11454;DHT22;5783;55.174;61.310;2023-05-09T03:33:10;20.80;31.20
11454;DHT22;5783;55.174;61.310;2023-05-09T03:35:39;20.80;31.00
11454;DHT22;5783;55.174;61.310;2023-05-09T03:38:08;20.80;30.70
11454;DHT22;5783;55.174;61.310;2023-05-09T03:40:37;20.80;30.90
11454;DHT22;5783;55.174;61.310;2023-05-09T03:43:06;20.90;30.60
11454;DHT22;5783;55.174;61.310;2023-05-09T03:45:36;20.90;30.60
11454;DHT22;5783;55.174;61.310;2023-05-09T03:48:05;20.80;30.70
11454;DHT22;5783;55.174;61.310;2023-05-09T03:50:35;20.90;30.90
11454;DHT22;5783;55.174;61.310;2023-05-09T03:53:04;20.90;30.90
11454;DHT22;5783;55.174;61.310;2023-05-09T03:55:33;20.90;30.90
11454;DHT22;5783;55.174;61.310;2023-05-09T03:58:02;20.90;30.60
11454;DHT22;5783;55.174;61.310;2023-05-09T04:00:32;20.90;30.70
11454;DHT22;5783;55.174;61.310;2023-05-09T04:03:01;20.80;30.90
11454;DHT22;5783;55.174;61.310;2023-05-09T04:05:30;20.80;30.50
11454;DHT22;5783;55.174;61.310;2023-05-09T04:08:19;20.80;30.70
11454;DHT22;5783;55.174;61.310;2023-05-09T04:10:49;20.80;30.40
11454;DHT22;5783;55.174;61.310;2023-05-09T04:13:18;20.90;30.60
11454;DHT22;5783;55.174;61.310;2023-05-09T04:15:47;20.90;30.80
11454;DHT22;5783;55.174;61.310;2023-05-09T04:18:17;20.90;30.50
11454;DHT22;5783;55.174;61.310;2023-05-09T04:20:46;20.90;30.70
11454;DHT22;5783;55.174;61.310;2023-05-09T04:23:15;20.90;30.80
11454;DHT22;5783;55.174;61.310;2023-05-09T04:25:44;20.90;30.50
11454;DHT22;5783;55.174;61.310;2023-05-09T04:28:13;20.90;30.30
11454;DHT22;5783;55.174;61.310;2023-05-09T04:30:42;21.00;30.20
11454;DHT22;5783;55.174;61.310;2023-05-09T04:33:12;21.00;30.10
11454;DHT22;5783;55.174;61.310;2023-05-09T04:35:41;21.00;30.20
11454;DHT22;5783;55.174;61.310;2023-05-09T04:38:10;21.00;31.30
11454;DHT22;5783;55.174;61.310;2023-05-09T04:40:39;21.00;31.80
11454;DHT22;5783;55.174;61.310;2023-05-09T04:43:08;21.10;31.70
11454;DHT22;5783;55.174;61.310;2023-05-09T04:45:37;21.10;31.30
11454;DHT22;5783;55.174;61.310;2023-05-09T04:48:07;21.20;31.00
11454;DHT22;5783;55.174;61.310;2023-05-09T04:50:36;21.20;30.50
11454;DHT22;5783;55.174;61.310;2023-05-09T04:53:05;21.20;29.80
11454;DHT22;5783;55.174;61.310;2023-05-09T04:55:34;21.30;29.10
11454;DHT22;5783;55.174;61.310;2023-05-09T04:58:03;21.20;29.20
11454;DHT22;5783;55.174;61.310;2023-05-09T05:00:34;21.10;29.20
11454;DHT22;5783;55.174;61.310;2023-05-09T05:03:04;21.10;29.20
11454;DHT22;5783;55.174;61.310;2023-05-09T05:05:33;21.10;29.30
11454;DHT22;5783;55.174;61.310;2023-05-09T05:08:02;21.10;29.30
11454;DHT22;5783;55.174;61.310;2023-05-09T05:10:32;21.00;29.50
11454;DHT22;5783;55.174;61.310;2023-05-09T05:13:01;21.10;29.40
11454;DHT22;5783;55.174;61.310;2023-05-09T05:15:30;21.10;29.40
11454;DHT22;5783;55.174;61.310;2023-05-09T05:17:59;21.20;25.70
11454;DHT22;5783;55.174;61.310;2023-05-09T05:20:28;21.20;23.60
11454;DHT22;5783;55.174;61.310;2023-05-09T05:22:57;21.20;22.70
11454;DHT22;5783;55.174;61.310;2023-05-09T05:25:27;21.20;22.10
11454;DHT22;5783;55.174;61.310;2023-05-09T05:27:56;21.20;22.00
11454;DHT22;5783;55.174;61.310;2023-05-09T05:30:25;21.10;21.70
11454;DHT22;5783;55.174;61.310;2023-05-09T05:32:55;21.10;21.40
11454;DHT22;5783;55.174;61.310;2023-05-09T05:35:24;21.10;21.40
11454;DHT22;5783;55.174;61.310;2023-05-09T05:37:54;21.10;21.40
11454;DHT22;5783;55.174;61.310;2023-05-09T05:40:23;21.00;21.20
11454;DHT22;5783;55.174;61.310;2023-05-09T05:42:53;20.90;21.10
11454;DHT22;5783;55.174;61.310;2023-05-09T05:45:22;20.90;21.00
11454;DHT22;5783;55.174;61.310;2023-05-09T05:47:51;20.80;20.90
11454;DHT22;5783;55.174;61.310;2023-05-09T05:50:21;20.70;20.80
11454;DHT22;5783;55.174;61.310;2023-05-09T05:52:50;20.60;20.80
11454;DHT22;5783;55.174;61.310;2023-05-09T05:55:20;20.50;20.80
11454;DHT22;5783;55.174;61.310;2023-05-09T05:57:49;20.40;20.90
11454;DHT22;5783;55.174;61.310;2023-05-09T06:00:18;20.40;20.80
11454;DHT22;5783;55.174;61.310;2023-05-09T06:02:47;20.30;20.80
11454;DHT22;5783;55.174;61.310;2023-05-09T06:05:17;20.30;21.20
11454;DHT22;5783;55.174;61.310;2023-05-09T06:07:46;20.30;20.80
11454;DHT22;5783;55.174;61.310;2023-05-09T06:10:15;20.20;20.70
11454;DHT22;5783;55.174;61.310;2023-05-09T06:12:45;20.10;20.80
11454;DHT22;5783;55.174;61.310;2023-05-09T06:15:14;20.00;20.80
11454;DHT22;5783;55.174;61.310;2023-05-09T06:17:43;20.00;21.00
11454;DHT22;5783;55.174;61.310;2023-05-09T06:20:12;20.10;21.50
11454;DHT22;5783;55.174;61.310;2023-05-09T06:22:41;20.10;21.30
11454;DHT22;5783;55.174;61.310;2023-05-09T06:25:10;20.10;21.10
11454;DHT22;5783;55.174;61.310;2023-05-09T06:27:41;20.00;21.10
11454;DHT22;5783;55.174;61.310;2023-05-09T06:30:11;20.10;21.40
11454;DHT22;5783;55.174;61.310;2023-05-09T06:32:42;20.10;21.40
11454;DHT22;5783;55.174;61.310;2023-05-09T06:35:11;20.20;21.40
11454;DHT22;5783;55.174;61.310;2023-05-09T06:37:41;20.20;21.10
11454;DHT22;5783;55.174;61.310;2023-05-09T06:40:10;20.20;21.00
11454;DHT22;5783;55.174;61.310;2023-05-09T06:42:40;20.20;21.10
11454;DHT22;5783;55.174;61.310;2023-05-09T06:45:09;20.20;21.00
11454;DHT22;5783;55.174;61.310;2023-05-09T06:47:39;20.20;21.00
11454;DHT22;5783;55.174;61.310;2023-05-09T06:50:08;20.20;21.00
11454;DHT22;5783;55.174;61.310;2023-05-09T06:52:38;20.10;21.00
11454;DHT22;5783;55.174;61.310;2023-05-09T06:55:08;20.00;21.00
11454;DHT22;5783;55.174;61.310;2023-05-09T06:57:38;19.90;21.20
11454;DHT22;5783;55.174;61.310;2023-05-09T07:00:08;19.90;21.20
11454;DHT22;5783;55.174;61.310;2023-05-09T07:02:37;19.90;21.20
11454;DHT22;5783;55.174;61.310;2023-05-09T07:05:08;19.90;21.30
11454;DHT22;5783;55.174;61.310;2023-05-09T07:07:37;19.90;21.20
11454;DHT22;5783;55.174;61.310;2023-05-09T07:10:07;19.80;21.10
11454;DHT22;5783;55.174;61.310;2023-05-09T07:12:37;19.60;21.10
11454;DHT22;5783;55.174;61.310;2023-05-09T07:15:07;19.60;21.00
11454;DHT22;5783;55.174;61.310;2023-05-09T07:17:36;19.50;21.00
11454;DHT22;5783;55.174;61.310;2023-05-09T07:20:06;19.60;21.20
11454;DHT22;5783;55.174;61.310;2023-05-09T07:22:35;19.60;21.40
11454;DHT22;5783;55.174;61.310;2023-05-09T07:25:06;19.70;21.40
11454;DHT22;5783;55.174;61.310;2023-05-09T07:27:36;19.80;21.40
11454;DHT22;5783;55.174;61.310;2023-05-09T07:30:05;19.80;21.20
11454;DHT22;5783;55.174;61.310;2023-05-09T07:32:36;19.80;21.20
11454;DHT22;5783;55.174;61.310;2023-05-09T07:35:05;19.80;21.30
11454;DHT22;5783;55.174;61.310;2023-05-09T07:37:34;19.80;21.40
11454;DHT22;5783;55.174;61.310;2023-05-09T07:40:06;19.80;21.30
11454;DHT22;5783;55.174;61.310;2023-05-09T07:42:35;19.70;21.20
11454;DHT22;5783;55.174;61.310;2023-05-09T07:45:06;19.70;21.20
11454;DHT22;5783;55.174;61.310;2023-05-09T07:47:36;19.70;21.30
11454;DHT22;5783;55.174;61.310;2023-05-09T07:50:06;19.80;21.30
11454;DHT22;5783;55.174;61.310;2023-05-09T07:52:35;19.90;21.30
11454;DHT22;5783;55.174;61.310;2023-05-09T07:55:04;19.90;21.40
11454;DHT22;5783;55.174;61.310;2023-05-09T07:57:33;19.90;21.40
11454;DHT22;5783;55.174;61.310;2023-05-09T08:00:04;20.10;21.50
11454;DHT22;5783;55.174;61.310;2023-05-09T08:02:34;20.00;21.30
11454;DHT22;5783;55.174;61.310;2023-05-09T08:05:04;19.90;21.00
11454;DHT22;5783;55.174;61.310;2023-05-09T08:07:33;19.90;21.00
11454;DHT22;5783;55.174;61.310;2023-05-09T08:10:03;19.90;21.80
11454;DHT22;5783;55.174;61.310;2023-05-09T08:12:32;19.90;21.10
11454;DHT22;5783;55.174;61.310;2023-05-09T08:15:02;19.90;21.10
11454;DHT22;5783;55.174;61.310;2023-05-09T08:17:33;19.70;21.00
11454;DHT22;5783;55.174;61.310;2023-05-09T08:20:02;19.70;21.10
11454;DHT22;5783;55.174;61.310;2023-05-09T08:22:37;19.60;21.00
11454;DHT22;5783;55.174;61.310;2023-05-09T08:25:07;19.60;21.10
11454;DHT22;5783;55.174;61.310;2023-05-09T08:27:37;19.70;21.10
11454;DHT22;5783;55.174;61.310;2023-05-09T08:30:07;19.70;21.10
11454;DHT22;5783;55.174;61.310;2023-05-09T08:32:36;19.70;21.20
11454;DHT22;5783;55.174;61.310;2023-05-09T08:35:06;19.70;21.10
11454;DHT22;5783;55.174;61.310;2023-05-09T08:37:36;19.70;21.00
11454;DHT22;5783;55.174;61.310;2023-05-09T08:40:06;19.70;21.00
11454;DHT22;5783;55.174;61.310;2023-05-09T08:42:36;19.80;21.00
11454;DHT22;5783;55.174;61.310;2023-05-09T08:47:56;19.80;20.90
11454;DHT22;5783;55.174;61.310;2023-05-09T08:50:26;19.80;20.90
11454;DHT22;5783;55.174;61.310;2023-05-09T08:52:56;19.80;20.80
11454;DHT22;5783;55.174;61.310;2023-05-09T08:55:25;19.90;21.00
11454;DHT22;5783;55.174;61.310;2023-05-09T08:57:57;19.90;21.10
11454;DHT22;5783;55.174;61.310;2023-05-09T09:00:27;20.00;21.00
11454;DHT22;5783;55.174;61.310;2023-05-09T09:03:16;20.00;20.90
11454;DHT22;5783;55.174;61.310;2023-05-09T09:05:46;20.00;20.90
11454;DHT22;5783;55.174;61.310;2023-05-09T09:08:17;20.10;21.10
11454;DHT22;5783;55.174;61.310;2023-05-09T09:10:46;20.20;21.30
11454;DHT22;5783;55.174;61.310;2023-05-09T09:13:16;20.20;21.20
11454;DHT22;5783;55.174;61.310;2023-05-09T09:15:46;20.20;21.10
11454;DHT22;5783;55.174;61.310;2023-05-09T09:18:36;20.10;21.00
11454;DHT22;5783;55.174;61.310;2023-05-09T09:21:08;20.20;21.10
11454;DHT22;5783;55.174;61.310;2023-05-09T09:23:39;20.20;21.00
11454;DHT22;5783;55.174;61.310;2023-05-09T09:26:09;20.20;20.90
11454;DHT22;5783;55.174;61.310;2023-05-09T09:28:39;20.10;20.80
11454;DHT22;5783;55.174;61.310;2023-05-09T09:31:30;20.10;20.70
11454;DHT22;5783;55.174;61.310;2023-05-09T09:34:00;20.10;20.80
11454;DHT22;5783;55.174;61.310;2023-05-09T09:36:30;20.00;20.70
11454;DHT22;5783;55.174;61.310;2023-05-09T09:39:03;20.00;20.60
11454;DHT22;5783;55.174;61.310;2023-05-09T09:41:36;20.00;20.40
11454;DHT22;5783;55.174;61.310;2023-05-09T09:44:25;20.10;20.40
11454;DHT22;5783;55.174;61.310;2023-05-09T09:46:56;20.20;20.50
11454;DHT22;5783;55.174;61.310;2023-05-09T09:49:26;20.30;20.40
11454;DHT22;5783;55.174;61.310;2023-05-09T09:51:56;20.40;20.60
11454;DHT22;5783;55.174;61.310;2023-05-09T09:54:26;20.40;20.50
11454;DHT22;5783;55.174;61.310;2023-05-09T09:56:55;20.50;20.50
11454;DHT22;5783;55.174;61.310;2023-05-09T09:59:25;20.60;20.70
11454;DHT22;5783;55.174;61.310;2023-05-09T10:02:14;20.70;20.50
11454;DHT22;5783;55.174;61.310;2023-05-09T10:04:43;20.70;20.50
11454;DHT22;5783;55.174;61.310;2023-05-09T10:07:12;20.70;20.20
11454;DHT22;5783;55.174;61.310;2023-05-09T10:09:42;20.70;20.40
11454;DHT22;5783;55.174;61.310;2023-05-09T10:12:12;20.70;20.20
11454;DHT22;5783;55.174;61.310;2023-05-09T10:14:44;20.70;20.30
11454;DHT22;5783;55.174;61.310;2023-05-09T10:17:14;20.70;20.20
11454;DHT22;5783;55.174;61.310;2023-05-09T10:19:44;20.60;19.90
11454;DHT22;5783;55.174;61.310;2023-05-09T10:22:15;20.70;19.90
11454;DHT22;5783;55.174;61.310;2023-05-09T10:25:06;20.70;20.10
11454;DHT22;5783;55.174;61.310;2023-05-09T10:27:37;20.70;20.20
11454;DHT22;5783;55.174;61.310;2023-05-09T10:33:19;20.60;20.00
11454;DHT22;5783;55.174;61.310;2023-05-09T10:35:51;20.60;20.00
11454;DHT22;5783;55.174;61.310;2023-05-09T10:38:22;20.60;20.00
11454;DHT22;5783;55.174;61.310;2023-05-09T10:40:53;20.60;19.90
11454;DHT22;5783;55.174;61.310;2023-05-09T10:43:22;20.60;19.90
11454;DHT22;5783;55.174;61.310;2023-05-09T10:45:54;20.60;19.90
11454;DHT22;5783;55.174;61.310;2023-05-09T10:48:24;20.70;20.00
11454;DHT22;5783;55.174;61.310;2023-05-09T10:50:55;20.60;19.70
11454;DHT22;5783;55.174;61.310;2023-05-09T10:53:58;20.60;19.70
11454;DHT22;5783;55.174;61.310;2023-05-09T10:55:57;20.70;19.80
11454;DHT22;5783;55.174;61.310;2023-05-09T10:58:30;20.60;19.70
11454;DHT22;5783;55.174;61.310;2023-05-09T11:01:02;20.60;19.50
11454;DHT22;5783;55.174;61.310;2023-05-09T11:04:25;20.50;19.00
11454;DHT22;5783;55.174;61.310;2023-05-09T11:10:25;20.50;19.50
11454;DHT22;5783;55.174;61.310;2023-05-09T11:12:23;20.50;19.60
11454;DHT22;5783;55.174;61.310;2023-05-09T11:14:56;20.60;19.60
11454;DHT22;5783;55.174;61.310;2023-05-09T11:17:28;20.60;19.60
11454;DHT22;5783;55.174;61.310;2023-05-09T11:19:59;20.60;19.50
11454;DHT22;5783;55.174;61.310;2023-05-09T11:31:21;20.40;19.30
11454;DHT22;5783;55.174;61.310;2023-05-09T11:33:50;20.30;19.20
11454;DHT22;5783;55.174;61.310;2023-05-09T11:39:17;20.30;19.50
11454;DHT22;5783;55.174;61.310;2023-05-09T11:41:46;20.30;19.40
11454;DHT22;5783;55.174;61.310;2023-05-09T11:44:17;20.40;19.70
11454;DHT22;5783;55.174;61.310;2023-05-09T11:46:48;20.40;19.70
11454;DHT22;5783;55.174;61.310;2023-05-09T11:49:18;20.40;19.40
11454;DHT22;5783;55.174;61.310;2023-05-09T11:51:47;20.40;19.20
11454;DHT22;5783;55.174;61.310;2023-05-09T11:54:16;20.40;19.10
11454;DHT22;5783;55.174;61.310;2023-05-09T11:56:45;20.40;19.00
11454;DHT22;5783;55.174;61.310;2023-05-09T11:59:14;20.50;18.90
11454;DHT22;5783;55.174;61.310;2023-05-09T12:01:44;20.50;19.10
11454;DHT22;5783;55.174;61.310;2023-05-09T12:04:13;20.60;18.80
11454;DHT22;5783;55.174;61.310;2023-05-09T12:09:34;20.70;18.90
11454;DHT22;5783;55.174;61.310;2023-05-09T12:12:23;20.70;18.90
11454;DHT22;5783;55.174;61.310;2023-05-09T12:14:52;20.80;19.20
11454;DHT22;5783;55.174;61.310;2023-05-09T12:17:21;20.80;19.10
11454;DHT22;5783;55.174;61.310;2023-05-09T12:19:51;20.90;18.90
11454;DHT22;5783;55.174;61.310;2023-05-09T12:22:21;20.90;18.90
11454;DHT22;5783;55.174;61.310;2023-05-09T12:24:50;20.90;18.80
11454;DHT22;5783;55.174;61.310;2023-05-09T12:27:20;20.90;18.80
11454;DHT22;5783;55.174;61.310;2023-05-09T12:29:52;20.90;18.90
11454;DHT22;5783;55.174;61.310;2023-05-09T12:32:22;20.90;19.00
11454;DHT22;5783;55.174;61.310;2023-05-09T12:34:54;20.90;18.90
11454;DHT22;5783;55.174;61.310;2023-05-09T12:37:23;20.80;19.10
11454;DHT22;5783;55.174;61.310;2023-05-09T12:40:12;20.80;19.20
11454;DHT22;5783;55.174;61.310;2023-05-09T12:43:01;20.80;19.30
11454;DHT22;5783;55.174;61.310;2023-05-09T12:45:32;20.70;19.20
11454;DHT22;5783;55.174;61.310;2023-05-09T12:48:01;20.70;19.30
11454;DHT22;5783;55.174;61.310;2023-05-09T12:50:32;20.70;19.60
11454;DHT22;5783;55.174;61.310;2023-05-09T12:53:38;20.70;19.90
11454;DHT22;5783;55.174;61.310;2023-05-09T12:58:28;20.70;19.60
11454;DHT22;5783;55.174;61.310;2023-05-09T13:00:56;20.70;19.50
11454;DHT22;5783;55.174;61.310;2023-05-09T13:03:27;20.80;19.50
11454;DHT22;5783;55.174;61.310;2023-05-09T13:06:16;20.90;19.60
11454;DHT22;5783;55.174;61.310;2023-05-09T13:08:55;20.90;19.40
11454;DHT22;5783;55.174;61.310;2023-05-09T13:11:18;20.90;19.60
11454;DHT22;5783;55.174;61.310;2023-05-09T13:13:48;20.90;19.70
11454;DHT22;5783;55.174;61.310;2023-05-09T13:16:17;20.90;19.90
11454;DHT22;5783;55.174;61.310;2023-05-09T13:18:46;21.00;19.80
11454;DHT22;5783;55.174;61.310;2023-05-09T13:21:15;21.00;19.20
11454;DHT22;5783;55.174;61.310;2023-05-09T13:23:45;20.90;19.50
11454;DHT22;5783;55.174;61.310;2023-05-09T13:26:15;20.90;20.00
11454;DHT22;5783;55.174;61.310;2023-05-09T13:28:44;20.90;20.00
11454;DHT22;5783;55.174;61.310;2023-05-09T13:31:14;21.00;19.90
11454;DHT22;5783;55.174;61.310;2023-05-09T13:33:43;21.00;19.90
11454;DHT22;5783;55.174;61.310;2023-05-09T13:36:12;21.10;20.10
11454;DHT22;5783;55.174;61.310;2023-05-09T13:38:43;21.10;19.90
11454;DHT22;5783;55.174;61.310;2023-05-09T13:41:12;21.10;20.00
11454;DHT22;5783;55.174;61.310;2023-05-09T13:43:43;21.10;20.20
11454;DHT22;5783;55.174;61.310;2023-05-09T13:46:12;21.10;19.90
11454;DHT22;5783;55.174;61.310;2023-05-09T13:48:41;21.00;19.70
11454;DHT22;5783;55.174;61.310;2023-05-09T13:51:12;21.10;19.70
11454;DHT22;5783;55.174;61.310;2023-05-09T13:53:41;21.00;19.90
11454;DHT22;5783;55.174;61.310;2023-05-09T13:56:11;21.00;20.00
11454;DHT22;5783;55.174;61.310;2023-05-09T13:58:40;21.00;20.10
11454;DHT22;5783;55.174;61.310;2023-05-09T14:01:09;21.00;20.40
11454;DHT22;5783;55.174;61.310;2023-05-09T14:03:38;21.10;20.20
11454;DHT22;5783;55.174;61.310;2023-05-09T14:06:07;21.10;20.20
11454;DHT22;5783;55.174;61.310;2023-05-09T14:08:38;21.10;20.20
11454;DHT22;5783;55.174;61.310;2023-05-09T14:11:07;21.10;20.20
11454;DHT22;5783;55.174;61.310;2023-05-09T14:13:36;21.10;20.30
11454;DHT22;5783;55.174;61.310;2023-05-09T14:16:06;21.20;20.40
11454;DHT22;5783;55.174;61.310;2023-05-09T14:18:35;21.20;20.50
11454;DHT22;5783;55.174;61.310;2023-05-09T14:21:06;21.20;20.30
11454;DHT22;5783;55.174;61.310;2023-05-09T14:23:35;21.20;20.20
11454;DHT22;5783;55.174;61.310;2023-05-09T14:26:04;21.10;20.20
11454;DHT22;5783;55.174;61.310;2023-05-09T14:28:34;21.10;20.20
11454;DHT22;5783;55.174;61.310;2023-05-09T14:31:04;21.10;20.30
11454;DHT22;5783;55.174;61.310;2023-05-09T14:33:33;21.10;20.30
11454;DHT22;5783;55.174;61.310;2023-05-09T14:36:02;21.10;20.50
11454;DHT22;5783;55.174;61.310;2023-05-09T14:38:32;21.10;20.30
11454;DHT22;5783;55.174;61.310;2023-05-09T14:41:02;21.10;20.30
11454;DHT22;5783;55.174;61.310;2023-05-09T14:43:33;21.10;20.20
11454;DHT22;5783;55.174;61.310;2023-05-09T14:46:02;21.10;20.20
11454;DHT22;5783;55.174;61.310;2023-05-09T14:48:33;21.10;20.40
11454;DHT22;5783;55.174;61.310;2023-05-09T14:51:02;21.10;20.30
11454;DHT22;5783;55.174;61.310;2023-05-09T14:53:31;21.10;20.30
11454;DHT22;5783;55.174;61.310;2023-05-09T14:56:20;21.10;20.40
11454;DHT22;5783;55.174;61.310;2023-05-09T14:58:49;21.10;20.40
11454;DHT22;5783;55.174;61.310;2023-05-09T15:01:18;21.00;20.50
11454;DHT22;5783;55.174;61.310;2023-05-09T15:03:49;21.10;20.80
11454;DHT22;5783;55.174;61.310;2023-05-09T15:06:18;21.20;21.60
11454;DHT22;5783;55.174;61.310;2023-05-09T15:08:49;21.30;22.50
11454;DHT22;5783;55.174;61.310;2023-05-09T15:11:18;21.40;22.90
11454;DHT22;5783;55.174;61.310;2023-05-09T15:13:47;21.40;23.10
11454;DHT22;5783;55.174;61.310;2023-05-09T15:16:16;21.50;23.20
11454;DHT22;5783;55.174;61.310;2023-05-09T15:18:46;21.50;23.20
11454;DHT22;5783;55.174;61.310;2023-05-09T15:21:15;21.60;23.20
11454;DHT22;5783;55.174;61.310;2023-05-09T15:23:44;21.60;23.50
11454;DHT22;5783;55.174;61.310;2023-05-09T15:26:13;21.70;23.80
11454;DHT22;5783;55.174;61.310;2023-05-09T15:28:42;21.70;23.80
11454;DHT22;5783;55.174;61.310;2023-05-09T15:31:11;21.70;24.00
11454;DHT22;5783;55.174;61.310;2023-05-09T15:33:40;21.80;24.00
11454;DHT22;5783;55.174;61.310;2023-05-09T15:36:09;21.80;24.10
11454;DHT22;5783;55.174;61.310;2023-05-09T15:38:39;21.80;24.10
11454;DHT22;5783;55.174;61.310;2023-05-09T15:41:08;21.80;24.50
11454;DHT22;5783;55.174;61.310;2023-05-09T15:43:37;21.80;24.50
11454;DHT22;5783;55.174;61.310;2023-05-09T15:46:06;21.90;24.70
11454;DHT22;5783;55.174;61.310;2023-05-09T15:48:35;21.90;24.70
11454;DHT22;5783;55.174;61.310;2023-05-09T15:51:04;21.90;24.80
11454;DHT22;5783;55.174;61.310;2023-05-09T15:53:35;21.90;24.50
11454;DHT22;5783;55.174;61.310;2023-05-09T15:56:04;21.90;24.30
11454;DHT22;5783;55.174;61.310;2023-05-09T15:58:33;21.90;24.50
11454;DHT22;5783;55.174;61.310;2023-05-09T16:01:03;21.90;24.20
11454;DHT22;5783;55.174;61.310;2023-05-09T16:03:33;21.90;24.10
11454;DHT22;5783;55.174;61.310;2023-05-09T16:06:03;21.90;24.10
11454;DHT22;5783;55.174;61.310;2023-05-09T16:08:32;21.90;23.90
11454;DHT22;5783;55.174;61.310;2023-05-09T16:11:01;21.80;24.10
11454;DHT22;5783;55.174;61.310;2023-05-09T16:13:30;21.80;24.10
11454;DHT22;5783;55.174;61.310;2023-05-09T16:16:00;21.80;24.10
11454;DHT22;5783;55.174;61.310;2023-05-09T16:18:29;21.80;24.20
11454;DHT22;5783;55.174;61.310;2023-05-09T16:20:58;21.80;24.30
11454;DHT22;5783;55.174;61.310;2023-05-09T16:23:28;21.70;24.30
11454;DHT22;5783;55.174;61.310;2023-05-09T16:25:58;21.70;24.40
11454;DHT22;5783;55.174;61.310;2023-05-09T16:28:27;21.70;24.70
11454;DHT22;5783;55.174;61.310;2023-05-09T16:30:56;21.70;25.10
11454;DHT22;5783;55.174;61.310;2023-05-09T16:33:45;21.70;25.20
11454;DHT22;5783;55.174;61.310;2023-05-09T16:36:15;21.70;25.40
11454;DHT22;5783;55.174;61.310;2023-05-09T16:44:05;21.60;25.70